Pawhuska, Oklahoma
Current Conditions -  °F | °C
As of 4:53 PM on Saturday 20 Dec 2014 (Local Time) from KBVO Reporting Station
Clear Clear  
Wind Chill: 36°   Ceiling: Unl
Heat Index: 42°   Visibility: 10mi
Dew Point: 34°   Wind: 10mph
Humidity: 73%   Direction: 160°SSE
Pressure: 30.18"   Gusts: NA
Location:  36.67°N, 96.34°W
Report Text: KBVO 202253Z AUTO 16009KT 10SM CLR 06/01 A3018 RMK AO2 SLP218 T00560011
Loading
Personal Weather Stations






























Interactive Weather Map New forecast layout! Learn more

10-Day Weather Forecast

Advertisements
Track Severe Weather on mobile